createdAt,value
2022-10-23T00:00:00.296Z,84
2022-10-23T00:05:00.193Z,83
2022-10-23T00:10:00.254Z,83
2022-10-23T00:15:00.165Z,83
2022-10-23T00:20:00.268Z,83
2022-10-23T00:25:00.213Z,83
2022-10-23T00:30:00.205Z,83
2022-10-23T00:35:00.145Z,83
2022-10-23T00:40:00.209Z,83
2022-10-23T00:45:00.240Z,84
2022-10-23T00:50:00.255Z,84
2022-10-23T00:55:00.147Z,84
2022-10-23T01:00:00.279Z,84
2022-10-23T01:05:00.186Z,84
2022-10-23T01:10:00.246Z,84
2022-10-23T01:15:00.148Z,84
2022-10-23T01:20:00.258Z,84
2022-10-23T01:25:00.145Z,84
2022-10-23T01:30:00.244Z,84
2022-10-23T01:35:00.230Z,84
2022-10-23T01:40:00.252Z,84
2022-10-23T01:45:00.141Z,84
2022-10-23T01:50:00.301Z,84
2022-10-23T01:55:00.236Z,84
2022-10-23T02:00:00.278Z,84
2022-10-23T02:05:00.198Z,84
2022-10-23T02:10:00.213Z,84
2022-10-23T02:15:00.143Z,84
2022-10-23T02:20:00.428Z,84
2022-10-23T02:25:05.241Z,84
2022-10-23T02:30:00.307Z,84
2022-10-23T02:35:00.201Z,84
2022-10-23T02:40:00.245Z,84
2022-10-23T02:45:00.404Z,84
2022-10-23T02:50:00.248Z,84
2022-10-23T02:55:00.144Z,85
2022-10-23T03:00:00.237Z,85
2022-10-23T03:05:00.137Z,84
2022-10-23T03:10:00.196Z,85
2022-10-23T03:15:00.129Z,85
2022-10-23T03:20:00.277Z,85
2022-10-23T03:25:00.139Z,85
2022-10-23T03:30:00.250Z,85
2022-10-23T03:35:00.151Z,85
2022-10-23T03:40:00.209Z,85
2022-10-23T03:45:00.182Z,85
2022-10-23T03:50:00.232Z,85
2022-10-23T03:55:00.178Z,85
2022-10-23T04:00:00.239Z,85
2022-10-23T04:05:00.221Z,85
2022-10-23T04:10:00.263Z,85
2022-10-23T04:15:00.173Z,85
2022-10-23T04:20:00.259Z,85
2022-10-23T04:25:00.239Z,85
2022-10-23T04:30:00.284Z,85
2022-10-23T04:35:00.169Z,85
2022-10-23T04:40:00.267Z,85
2022-10-23T04:45:00.137Z,85
2022-10-23T04:50:00.272Z,85
2022-10-23T04:55:00.137Z,85
2022-10-23T05:00:00.249Z,85
2022-10-23T05:05:00.138Z,85
2022-10-23T05:10:00.271Z,85
2022-10-23T05:15:00.179Z,85
2022-10-23T05:20:00.195Z,85
2022-10-23T05:25:00.218Z,85
2022-10-23T05:30:00.311Z,85
2022-10-23T05:35:00.145Z,85
2022-10-23T05:40:00.259Z,85
2022-10-23T05:45:00.214Z,85
2022-10-23T05:50:00.269Z,85
2022-10-23T05:55:00.201Z,85
2022-10-23T06:00:00.261Z,85
2022-10-23T06:05:00.145Z,85
2022-10-23T06:10:00.243Z,85
2022-10-23T06:15:00.159Z,85
2022-10-23T06:20:00.260Z,85
2022-10-23T06:25:00.148Z,85
2022-10-23T06:30:00.300Z,85
2022-10-23T06:35:00.230Z,85
2022-10-23T06:40:00.194Z,85
2022-10-23T06:45:04.701Z,85
2022-10-23T06:50:00.281Z,85
2022-10-23T06:55:00.138Z,86
2022-10-23T07:00:00.284Z,86
2022-10-23T07:05:00.221Z,86
2022-10-23T07:10:00.378Z,86
2022-10-23T07:15:00.153Z,86
2022-10-23T07:20:00.214Z,86
2022-10-23T07:25:00.209Z,86
2022-10-23T07:30:00.243Z,86
2022-10-23T07:35:00.300Z,86
2022-10-23T07:40:00.249Z,86
2022-10-23T07:45:00.177Z,86
2022-10-23T07:50:00.276Z,86
2022-10-23T07:55:00.160Z,86
2022-10-23T08:00:00.237Z,86
2022-10-23T08:05:00.146Z,86
2022-10-23T08:10:00.236Z,86
2022-10-23T08:15:00.140Z,86
2022-10-23T08:20:00.220Z,86
2022-10-23T08:25:00.173Z,86
2022-10-23T08:30:00.227Z,86
2022-10-23T08:35:00.244Z,87
2022-10-23T08:40:00.300Z,87
2022-10-23T08:45:00.185Z,87
2022-10-23T08:50:00.361Z,87
2022-10-23T08:55:00.149Z,87
2022-10-23T09:00:00.270Z,87
2022-10-23T09:05:00.150Z,87
2022-10-23T09:10:00.214Z,87
2022-10-23T09:15:00.147Z,87
2022-10-23T09:20:00.289Z,87
2022-10-23T09:25:00.144Z,87
2022-10-23T09:30:00.253Z,87
2022-10-23T09:35:00.151Z,87
2022-10-23T09:40:00.261Z,87
2022-10-23T09:45:00.199Z,87
2022-10-23T09:50:00.238Z,87
2022-10-23T09:55:00.228Z,87
2022-10-23T10:00:00.282Z,87
2022-10-23T10:05:00.148Z,87
2022-10-23T10:10:00.317Z,87
2022-10-23T10:15:00.223Z,87
2022-10-23T10:20:03.871Z,87
2022-10-23T10:25:00.167Z,87
2022-10-23T10:30:00.311Z,87
2022-10-23T10:35:00.239Z,87
2022-10-23T10:40:00.234Z,87
2022-10-23T10:45:00.240Z,87
2022-10-23T10:50:00.260Z,87
2022-10-23T10:55:00.235Z,87
2022-10-23T11:00:00.291Z,87
2022-10-23T11:05:00.251Z,87
2022-10-23T11:10:00.283Z,87
2022-10-23T11:15:00.239Z,87
2022-10-23T11:20:00.250Z,87
2022-10-23T11:25:00.262Z,87
2022-10-23T11:30:00.296Z,87
2022-10-23T11:35:00.245Z,87
2022-10-23T11:40:00.265Z,87
2022-10-23T11:45:00.137Z,87
2022-10-23T11:50:00.215Z,87
2022-10-23T11:55:00.261Z,86
2022-10-23T12:00:00.215Z,86
2022-10-23T12:05:00.196Z,86
2022-10-23T12:10:00.260Z,86
2022-10-23T12:15:00.226Z,86
2022-10-23T12:20:00.241Z,86
2022-10-23T12:25:00.231Z,86
2022-10-23T12:30:00.249Z,86
2022-10-23T12:35:00.229Z,85
2022-10-23T12:40:00.285Z,85
2022-10-23T12:45:00.242Z,84
2022-10-23T12:50:00.271Z,84
2022-10-23T12:55:00.235Z,84
2022-10-23T13:00:00.250Z,84
2022-10-23T13:05:00.247Z,84
2022-10-23T13:10:00.288Z,83
2022-10-23T13:15:00.203Z,83
2022-10-23T13:20:00.258Z,83
2022-10-23T13:25:00.225Z,82
2022-10-23T13:30:00.315Z,82
2022-10-23T13:35:10.067Z,82
2022-10-23T13:40:00.292Z,81
2022-10-23T13:45:00.206Z,80
2022-10-23T13:50:00.261Z,80
2022-10-23T13:55:00.270Z,80
2022-10-23T14:00:00.299Z,80
2022-10-23T14:05:00.460Z,79
2022-10-23T14:10:00.289Z,79
2022-10-23T14:15:00.212Z,78
2022-10-23T14:20:00.277Z,78
2022-10-23T14:25:00.227Z,78
2022-10-23T14:30:00.275Z,78
2022-10-23T14:35:00.212Z,78
2022-10-23T14:40:00.267Z,78
2022-10-23T14:45:00.143Z,77
2022-10-23T14:50:00.275Z,77
2022-10-23T14:55:00.191Z,77
2022-10-23T15:00:00.278Z,77
2022-10-23T15:05:00.242Z,77
2022-10-23T15:10:00.237Z,78
2022-10-23T15:15:00.222Z,78
2022-10-23T15:20:00.205Z,77
2022-10-23T15:25:00.150Z,77
2022-10-23T15:30:00.280Z,77
2022-10-23T15:35:00.214Z,77
2022-10-23T15:40:02.381Z,77
2022-10-23T15:45:00.144Z,77
2022-10-23T15:50:00.215Z,77
2022-10-23T15:55:00.228Z,77
2022-10-23T16:00:00.367Z,77
2022-10-23T16:05:00.231Z,77
2022-10-23T16:10:00.522Z,78
2022-10-23T16:15:00.193Z,78
2022-10-23T16:20:00.404Z,78
2022-10-23T16:25:00.244Z,78
2022-10-23T16:30:00.412Z,78
2022-10-23T16:35:00.149Z,78
2022-10-23T16:40:00.262Z,79
2022-10-23T16:45:00.150Z,79
2022-10-23T16:50:00.282Z,78
2022-10-23T16:55:00.186Z,79
2022-10-23T17:00:00.278Z,79
2022-10-23T17:05:00.219Z,79
2022-10-23T17:10:00.197Z,79
2022-10-23T17:15:00.148Z,79
2022-10-23T17:20:00.174Z,79
2022-10-23T17:25:00.150Z,79
2022-10-23T17:30:00.289Z,79
2022-10-23T17:35:00.142Z,79
2022-10-23T17:40:01.290Z,80
2022-10-23T17:45:00.228Z,80
2022-10-23T17:50:00.269Z,80
2022-10-23T17:55:00.246Z,81
2022-10-23T18:00:00.291Z,82
2022-10-23T18:05:00.162Z,82
2022-10-23T18:10:00.204Z,82
2022-10-23T18:15:00.249Z,82
2022-10-23T18:20:02.149Z,82
2022-10-23T18:25:00.213Z,82
2022-10-23T18:30:00.279Z,82
2022-10-23T18:35:00.166Z,82
2022-10-23T18:40:00.228Z,83
2022-10-23T18:45:00.144Z,83
2022-10-23T18:50:00.315Z,83
2022-10-23T18:55:00.445Z,83
2022-10-23T19:00:00.391Z,83
2022-10-23T19:05:00.365Z,83
2022-10-23T19:10:00.341Z,83
2022-10-23T19:15:00.213Z,83
2022-10-23T19:20:00.262Z,83
2022-10-23T19:25:00.257Z,83
2022-10-23T19:30:00.278Z,83
2022-10-23T19:35:00.247Z,83
2022-10-23T19:40:00.218Z,83
2022-10-23T19:45:00.226Z,83
2022-10-23T19:50:00.286Z,83
2022-10-23T19:55:00.146Z,83
2022-10-23T20:00:00.257Z,84
2022-10-23T20:05:00.144Z,84
2022-10-23T20:10:00.298Z,84
2022-10-23T20:15:00.204Z,84
2022-10-23T20:20:00.242Z,84
2022-10-23T20:25:00.223Z,84
2022-10-23T20:30:00.221Z,84
2022-10-23T20:35:05.201Z,84
2022-10-23T20:40:00.255Z,84
2022-10-23T20:45:00.234Z,84
2022-10-23T20:50:00.268Z,84
2022-10-23T20:55:00.280Z,84
2022-10-23T21:00:00.257Z,84
2022-10-23T21:05:00.218Z,84
2022-10-23T21:10:00.243Z,84
2022-10-23T21:15:00.201Z,84
2022-10-23T21:20:00.252Z,84
2022-10-23T21:25:00.171Z,84
2022-10-23T21:30:00.296Z,84
2022-10-23T21:35:00.226Z,84
2022-10-23T21:40:00.225Z,83
2022-10-23T21:45:00.242Z,83
2022-10-23T21:50:00.257Z,83
2022-10-23T21:55:00.153Z,83
2022-10-23T22:00:00.353Z,83
2022-10-23T22:05:00.228Z,83
2022-10-23T22:10:00.232Z,83
2022-10-23T22:15:00.236Z,83
2022-10-23T22:20:00.281Z,83
2022-10-23T22:25:00.276Z,83
2022-10-23T22:30:00.251Z,83
2022-10-23T22:35:00.190Z,83
2022-10-23T22:40:00.274Z,83
2022-10-23T22:45:00.211Z,84
2022-10-23T22:50:00.241Z,84
2022-10-23T22:55:00.246Z,84
2022-10-23T23:00:00.241Z,84
2022-10-23T23:05:00.190Z,84
2022-10-23T23:10:00.254Z,84
2022-10-23T23:15:00.259Z,84
2022-10-23T23:20:00.211Z,84
2022-10-23T23:25:00.230Z,84
2022-10-23T23:30:00.256Z,84
2022-10-23T23:35:00.200Z,84
2022-10-23T23:40:00.248Z,84
2022-10-23T23:45:03.113Z,84
2022-10-23T23:50:00.285Z,84
2022-10-23T23:55:00.175Z,84
